createdAt,value
2022-08-07T00:00:57.128Z,24.40
2022-08-07T00:03:28.552Z,24.40
2022-08-07T00:06:29.774Z,24.40
2022-08-07T00:09:16.336Z,24.40
2022-08-07T00:11:55.407Z,24.40
2022-08-07T00:14:30.059Z,24.40
2022-08-07T00:17:01.571Z,24.30
2022-08-07T00:19:34.230Z,24.30
2022-08-07T00:22:24.791Z,24.30
2022-08-07T00:25:07.040Z,24.20
2022-08-07T00:27:53.748Z,24.20
2022-08-07T00:30:28.568Z,24.20
2022-08-07T00:32:59.093Z,24.20
2022-08-07T00:35:30.040Z,24.10
2022-08-07T00:37:59.501Z,24.10
2022-08-07T00:40:40.110Z,24.10
2022-08-07T00:44:01.715Z,24.10
2022-08-07T00:46:01.926Z,24.10
2022-08-07T00:48:31.985Z,24.10
2022-08-07T00:51:03.043Z,24.00
2022-08-07T00:53:38.507Z,24.00
2022-08-07T00:56:13.875Z,24.00
2022-08-07T00:58:47.124Z,23.90
2022-08-07T01:01:21.873Z,23.90
2022-08-07T01:04:10.240Z,23.90
2022-08-07T01:06:39.632Z,23.90
2022-08-07T01:09:08.650Z,23.90
2022-08-07T01:12:27.672Z,23.90
2022-08-07T01:14:28.440Z,23.80
2022-08-07T01:17:00.625Z,23.80
2022-08-07T01:19:38.457Z,23.80
2022-08-07T01:22:22.585Z,23.80
2022-08-07T01:24:58.436Z,23.80
2022-08-07T01:27:32.452Z,23.80
2022-08-07T01:30:20.144Z,23.80
2022-08-07T01:32:58.594Z,23.70
2022-08-07T01:35:52.924Z,23.70
2022-08-07T01:38:25.241Z,23.70
2022-08-07T01:41:13.765Z,23.70
2022-08-07T01:43:56.980Z,23.70
2022-08-07T01:46:27.984Z,23.70
2022-08-07T01:49:00.350Z,23.70
2022-08-07T01:52:03.951Z,23.70
2022-08-07T01:54:33.163Z,23.70
2022-08-07T01:57:24.423Z,23.60
2022-08-07T02:00:02.033Z,23.60
2022-08-07T02:03:19.417Z,23.60
2022-08-07T02:05:47.824Z,23.50
2022-08-07T02:08:25.431Z,23.50
2022-08-07T02:10:59.722Z,23.50
2022-08-07T02:13:56.669Z,23.50
2022-08-07T02:16:32.849Z,23.40
2022-08-07T02:19:05.515Z,23.30
2022-08-07T02:21:58.615Z,23.30
2022-08-07T02:24:30.272Z,23.30
2022-08-07T02:27:04.018Z,23.30
2022-08-07T02:29:36.809Z,23.20
2022-08-07T02:32:23.242Z,23.30
2022-08-07T02:34:58.241Z,23.30
2022-08-07T02:37:34.093Z,23.30
2022-08-07T02:40:31.146Z,23.30
2022-08-07T02:43:20.624Z,23.40
2022-08-07T02:45:58.333Z,23.30
2022-08-07T02:48:29.714Z,23.30
2022-08-07T02:51:04.869Z,23.30
2022-08-07T02:53:38.532Z,23.20
2022-08-07T02:56:20.931Z,23.20
2022-08-07T02:59:14.902Z,23.10
2022-08-07T03:01:47.316Z,23.10
2022-08-07T03:04:24.515Z,23.00
2022-08-07T03:06:54.748Z,23.00
2022-08-07T03:09:44.460Z,23.00
2022-08-07T03:12:22.479Z,23.00
2022-08-07T03:15:10.492Z,23.00
2022-08-07T03:17:53.293Z,23.00
2022-08-07T03:20:27.493Z,23.10
2022-08-07T03:22:58.638Z,23.10
2022-08-07T03:25:32.578Z,23.10
2022-08-07T03:28:37.324Z,23.20
2022-08-07T03:31:26.246Z,23.20
2022-08-07T03:34:18.592Z,23.30
2022-08-07T03:36:53.941Z,23.30
2022-08-07T03:39:59.655Z,23.40
2022-08-07T03:42:20.161Z,23.50
2022-08-07T03:44:53.371Z,23.50
2022-08-07T03:47:25.209Z,23.50
2022-08-07T03:49:59.107Z,23.60
2022-08-07T03:52:34.915Z,23.60
2022-08-07T03:55:08.312Z,23.60
2022-08-07T03:58:34.438Z,23.60
2022-08-07T04:00:37.083Z,23.60
2022-08-07T04:03:10.084Z,23.70
2022-08-07T04:05:45.487Z,23.70
2022-08-07T04:08:23.139Z,23.70
2022-08-07T04:12:24.567Z,23.70
2022-08-07T04:14:10.213Z,23.70
2022-08-07T04:16:38.545Z,23.80
2022-08-07T04:19:50.856Z,23.80
2022-08-07T04:22:22.981Z,23.80
2022-08-07T04:24:54.414Z,23.80
2022-08-07T04:27:25.217Z,23.80
2022-08-07T04:30:01.091Z,23.80
2022-08-07T04:32:38.696Z,23.90
2022-08-07T04:35:17.218Z,23.90
2022-08-07T04:38:02.942Z,24.00
2022-08-07T04:40:35.305Z,24.00
2022-08-07T04:43:04.458Z,24.10
2022-08-07T04:46:01.199Z,24.10
2022-08-07T04:48:44.656Z,24.20
2022-08-07T04:51:27.828Z,24.30
2022-08-07T04:54:06.075Z,24.30
2022-08-07T04:58:09.385Z,24.40
2022-08-07T05:00:14.459Z,24.50
2022-08-07T05:03:17.294Z,24.60
2022-08-07T05:06:19.510Z,24.70
2022-08-07T05:09:02.101Z,24.70
2022-08-07T05:11:57.333Z,24.80
2022-08-07T05:14:55.216Z,24.90
2022-08-07T05:17:51.624Z,25.00
2022-08-07T05:20:28.121Z,25.00
2022-08-07T05:23:15.789Z,25.10
2022-08-07T05:26:10.911Z,25.20
2022-08-07T05:28:41.292Z,25.20
2022-08-07T05:31:39.828Z,25.30
2022-08-07T05:34:15.956Z,25.40
2022-08-07T05:36:52.709Z,25.50
2022-08-07T05:40:06.793Z,25.50
2022-08-07T05:42:34.850Z,25.60
2022-08-07T05:45:26.388Z,25.60
2022-08-07T05:48:19.374Z,25.70
2022-08-07T05:50:57.993Z,25.80
2022-08-07T05:54:12.566Z,25.90
2022-08-07T05:56:19.814Z,26.00
2022-08-07T05:59:01.515Z,26.10
2022-08-07T06:01:35.019Z,26.10
2022-08-07T06:04:09.779Z,26.20
2022-08-07T06:06:46.316Z,26.30
2022-08-07T06:09:19.191Z,26.40
2022-08-07T06:11:50.708Z,26.50
2022-08-07T06:14:28.706Z,26.50
2022-08-07T06:17:02.568Z,26.60
2022-08-07T06:19:57.700Z,26.70
2022-08-07T06:22:38.849Z,26.80
2022-08-07T06:25:54.553Z,26.80
2022-08-07T06:28:27.363Z,26.90
2022-08-07T06:31:00.238Z,26.90
2022-08-07T06:33:33.090Z,27.00
2022-08-07T06:36:12.973Z,27.10
2022-08-07T06:40:13.630Z,27.10
2022-08-07T06:42:01.681Z,27.20
2022-08-07T06:44:52.805Z,27.30
2022-08-07T06:47:27.164Z,27.40
2022-08-07T06:49:59.075Z,27.40
2022-08-07T06:52:39.824Z,27.50
2022-08-07T06:55:34.299Z,27.60
2022-08-07T06:58:24.516Z,27.60
2022-08-07T07:01:07.627Z,27.70
2022-08-07T07:03:48.256Z,27.80
2022-08-07T07:06:24.102Z,27.90
2022-08-07T07:08:58.150Z,28.00
2022-08-07T07:12:07.646Z,28.00
2022-08-07T07:14:21.679Z,28.10
2022-08-07T07:16:53.777Z,28.10
2022-08-07T07:19:56.023Z,28.20
2022-08-07T07:22:34.451Z,28.30
2022-08-07T07:26:31.225Z,28.30
2022-08-07T07:28:42.496Z,28.40
2022-08-07T07:31:01.549Z,28.40
2022-08-07T07:33:35.243Z,28.50
2022-08-07T07:36:13.084Z,28.50
2022-08-07T07:38:46.022Z,28.60
2022-08-07T07:41:19.042Z,28.70
2022-08-07T07:44:17.320Z,28.70
2022-08-07T07:46:54.204Z,28.80
2022-08-07T07:50:32.771Z,28.90
2022-08-07T07:52:23.556Z,28.90
2022-08-07T07:54:53.952Z,29.00
2022-08-07T07:57:51.843Z,29.10
2022-08-07T08:00:31.443Z,29.10
2022-08-07T08:03:07.308Z,29.20
2022-08-07T08:05:51.003Z,29.30
2022-08-07T08:08:36.277Z,29.40
2022-08-07T08:11:08.985Z,29.40
2022-08-07T08:13:52.924Z,29.50
2022-08-07T08:16:29.638Z,29.60
2022-08-07T08:19:09.717Z,29.70
2022-08-07T08:22:08.079Z,29.80
2022-08-07T08:25:18.466Z,29.90
2022-08-07T08:27:57.505Z,29.90
2022-08-07T08:30:51.512Z,30.00
2022-08-07T08:33:28.871Z,30.10
2022-08-07T08:36:03.167Z,30.20
2022-08-07T08:38:40.399Z,30.30
2022-08-07T08:41:19.207Z,30.40
2022-08-07T08:43:58.982Z,30.40
2022-08-07T08:46:38.394Z,30.50
2022-08-07T08:49:18.490Z,30.60
2022-08-07T08:52:14.324Z,30.70
2022-08-07T08:54:52.057Z,30.80
2022-08-07T08:57:34.062Z,30.90
2022-08-07T09:00:07.969Z,30.90
2022-08-07T09:02:49.502Z,31.00
2022-08-07T09:05:39.053Z,31.10
2022-08-07T09:08:24.424Z,31.20
2022-08-07T09:11:13.981Z,31.20
2022-08-07T09:14:09.620Z,31.30
2022-08-07T09:17:05.634Z,31.40
2022-08-07T09:19:55.247Z,31.40
2022-08-07T09:24:29.139Z,31.50
2022-08-07T09:26:07.078Z,31.60
2022-08-07T09:30:02.067Z,31.70
2022-08-07T09:31:48.651Z,31.80
2022-08-07T09:34:27.309Z,31.80
2022-08-07T09:37:03.230Z,31.90
2022-08-07T09:39:55.961Z,32.00
2022-08-07T09:42:50.246Z,32.00
2022-08-07T09:47:49.461Z,32.10
2022-08-07T09:50:00.612Z,32.10
2022-08-07T09:52:16.699Z,32.10
2022-08-07T09:54:57.499Z,32.20
2022-08-07T09:57:55.975Z,32.30
2022-08-07T10:00:32.129Z,32.40
2022-08-07T10:04:07.151Z,32.50
2022-08-07T10:06:56.820Z,32.50
2022-08-07T10:10:01.051Z,32.50
2022-08-07T10:12:54.525Z,32.60
2022-08-07T10:15:50.382Z,32.70
2022-08-07T10:19:03.658Z,32.70
2022-08-07T10:22:16.004Z,32.80
2022-08-07T10:25:22.786Z,32.90
2022-08-07T10:28:14.414Z,33.00
2022-08-07T10:31:05.922Z,33.10
2022-08-07T10:34:14.599Z,33.20
2022-08-07T10:36:59.260Z,33.30
2022-08-07T10:40:03.040Z,33.40
2022-08-07T10:43:02.617Z,33.50
2022-08-07T10:45:57.247Z,33.50
2022-08-07T10:48:36.451Z,33.60
2022-08-07T10:51:16.763Z,33.70
2022-08-07T10:54:28.320Z,33.80
2022-08-07T10:57:10.613Z,33.90
2022-08-07T11:00:08.946Z,34.00
2022-08-07T11:02:49.233Z,34.10
2022-08-07T11:05:48.902Z,34.20
2022-08-07T11:08:31.818Z,34.20
2022-08-07T11:11:09.242Z,34.40
2022-08-07T11:14:43.987Z,34.60
2022-08-07T11:16:40.403Z,34.70
2022-08-07T11:19:21.354Z,35.10
2022-08-07T11:22:01.077Z,35.50
2022-08-07T11:24:39.146Z,36.00
2022-08-07T11:28:00.870Z,36.40
2022-08-07T11:30:18.385Z,36.50
2022-08-07T11:33:16.902Z,36.50
2022-08-07T11:36:00.394Z,36.40
2022-08-07T11:38:38.263Z,36.30
2022-08-07T11:41:18.238Z,36.30
2022-08-07T11:44:12.534Z,36.40
2022-08-07T11:46:54.792Z,36.50
2022-08-07T11:50:31.009Z,36.50
2022-08-07T11:52:53.249Z,36.60
2022-08-07T11:56:09.314Z,36.60
2022-08-07T11:58:36.489Z,36.50
2022-08-07T12:01:25.666Z,36.50
2022-08-07T12:04:35.692Z,36.60
2022-08-07T12:07:18.988Z,36.60
2022-08-07T12:09:58.531Z,36.70
2022-08-07T12:12:39.525Z,36.80
2022-08-07T12:15:17.400Z,36.90
2022-08-07T12:18:32.050Z,37.00
2022-08-07T12:21:15.862Z,36.80
2022-08-07T12:24:07.298Z,36.80
2022-08-07T12:26:49.294Z,36.80
2022-08-07T12:29:37.646Z,36.80
2022-08-07T12:32:15.603Z,36.70
2022-08-07T12:34:49.159Z,36.60
2022-08-07T12:37:28.131Z,36.60
2022-08-07T12:40:36.078Z,36.40
2022-08-07T12:43:09.224Z,36.40
2022-08-07T12:45:52.296Z,36.60
2022-08-07T12:48:41.658Z,36.80
2022-08-07T12:51:33.187Z,36.80
2022-08-07T12:54:36.994Z,36.70
2022-08-07T12:57:09.550Z,36.70
2022-08-07T12:59:54.996Z,36.80
2022-08-07T13:02:58.272Z,36.90
2022-08-07T13:06:03.525Z,37.20
2022-08-07T13:08:44.478Z,37.50
2022-08-07T13:12:00.967Z,37.90
2022-08-07T13:14:33.654Z,38.20
2022-08-07T13:17:11.582Z,38.20
2022-08-07T13:19:51.413Z,38.20
2022-08-07T13:22:31.258Z,38.00
2022-08-07T13:25:06.044Z,37.80
2022-08-07T13:28:13.765Z,37.70
2022-08-07T13:30:41.106Z,37.50
2022-08-07T13:34:30.161Z,37.10
2022-08-07T13:36:18.406Z,36.60
2022-08-07T13:38:54.380Z,36.10
2022-08-07T13:41:35.857Z,35.80
2022-08-07T13:44:13.068Z,35.60
2022-08-07T13:46:49.233Z,35.30
2022-08-07T13:50:33.762Z,35.00
2022-08-07T13:52:32.481Z,34.70
2022-08-07T13:55:06.865Z,34.50
2022-08-07T13:57:59.039Z,34.20
2022-08-07T14:00:50.689Z,34.10
2022-08-07T14:03:28.930Z,33.90
2022-08-07T14:05:58.990Z,33.80
2022-08-07T14:08:29.803Z,33.70
2022-08-07T14:11:14.811Z,33.60
2022-08-07T14:13:56.145Z,33.50
2022-08-07T14:16:31.535Z,33.40
2022-08-07T14:19:04.904Z,33.30
2022-08-07T14:22:01.846Z,33.20
2022-08-07T14:24:36.970Z,33.20
2022-08-07T14:27:16.248Z,33.10
2022-08-07T14:30:11.688Z,33.10
2022-08-07T14:32:46.965Z,32.90
2022-08-07T14:35:44.778Z,32.80
2022-08-07T14:38:26.676Z,32.70
2022-08-07T14:41:04.179Z,32.60
2022-08-07T14:43:59.336Z,32.60
2022-08-07T14:46:32.047Z,32.50
2022-08-07T14:52:03.904Z,32.40
2022-08-07T14:54:42.194Z,32.30
2022-08-07T14:57:19.000Z,32.20
2022-08-07T15:00:05.821Z,32.10
2022-08-07T15:02:39.266Z,32.00
2022-08-07T15:05:20.292Z,32.00
2022-08-07T15:07:54.210Z,31.60
2022-08-07T15:10:26.351Z,31.90
2022-08-07T15:12:59.735Z,31.90
2022-08-07T15:15:52.839Z,31.90
2022-08-07T15:18:34.896Z,31.80
2022-08-07T15:21:44.379Z,31.70
2022-08-07T15:25:16.168Z,31.60
2022-08-07T15:27:12.210Z,31.60
2022-08-07T15:30:04.694Z,31.50
2022-08-07T15:33:03.880Z,31.50
2022-08-07T15:36:01.927Z,31.50
2022-08-07T15:38:33.123Z,31.40
2022-08-07T15:42:43.627Z,31.40
2022-08-07T15:44:15.565Z,31.30
2022-08-07T15:50:03.700Z,31.20
2022-08-07T15:52:29.799Z,31.10
2022-08-07T15:55:03.866Z,31.00
2022-08-07T15:57:47.603Z,31.00
2022-08-07T16:00:40.194Z,30.90
2022-08-07T16:03:20.945Z,30.80
2022-08-07T16:05:54.089Z,30.80
2022-08-07T16:08:30.817Z,30.70
2022-08-07T16:11:26.914Z,30.60
2022-08-07T16:14:08.965Z,30.50
2022-08-07T16:17:14.989Z,30.50
2022-08-07T16:20:01.401Z,30.40
2022-08-07T16:23:05.085Z,30.30
2022-08-07T16:25:56.692Z,30.20
2022-08-07T16:30:09.076Z,30.20
2022-08-07T16:31:57.618Z,30.10
2022-08-07T16:34:45.497Z,30.00
2022-08-07T16:38:04.036Z,30.00
2022-08-07T16:41:13.602Z,29.90
2022-08-07T16:44:05.865Z,29.80
2022-08-07T16:47:16.740Z,29.80
2022-08-07T16:50:35.712Z,29.70
2022-08-07T16:54:01.470Z,29.70
2022-08-07T16:56:37.588Z,29.60
2022-08-07T16:59:17.683Z,29.50
2022-08-07T17:02:02.909Z,29.50
2022-08-07T17:04:57.642Z,29.40
2022-08-07T17:07:55.533Z,29.40
2022-08-07T17:10:33.745Z,29.30
2022-08-07T17:13:41.101Z,29.20
2022-08-07T17:16:55.996Z,29.20
2022-08-07T17:20:00.889Z,29.10
2022-08-07T17:22:37.550Z,29.10
2022-08-07T17:25:17.806Z,29.00
2022-08-07T17:28:00.542Z,28.90
2022-08-07T17:30:58.106Z,28.90
2022-08-07T17:34:10.393Z,28.80
2022-08-07T17:36:30.197Z,28.80
2022-08-07T17:39:10.123Z,28.70
2022-08-07T17:42:03.582Z,28.70
2022-08-07T17:44:49.479Z,28.60
2022-08-07T17:47:38.078Z,28.60
2022-08-07T17:50:20.705Z,28.50
2022-08-07T17:52:59.035Z,28.50
2022-08-07T17:56:00.039Z,28.60
2022-08-07T17:58:33.132Z,28.50
2022-08-07T18:01:20.916Z,28.40
2022-08-07T18:04:16.638Z,28.40
2022-08-07T18:07:20.881Z,28.40
2022-08-07T18:10:06.431Z,28.40
2022-08-07T18:12:52.895Z,28.30
2022-08-07T18:15:32.956Z,28.30
2022-08-07T18:18:47.731Z,28.30
2022-08-07T18:21:42.212Z,28.30
2022-08-07T18:24:02.500Z,28.20
2022-08-07T18:27:01.215Z,28.20
2022-08-07T18:30:06.695Z,28.20
2022-08-07T18:33:10.807Z,28.20
2022-08-07T18:35:55.562Z,28.10
2022-08-07T18:38:57.384Z,28.10
2022-08-07T18:41:37.763Z,28.10
2022-08-07T18:44:38.885Z,28.10
2022-08-07T18:47:44.896Z,28.10
2022-08-07T18:50:46.382Z,28.10
2022-08-07T18:53:36.746Z,28.00
2022-08-07T18:56:17.847Z,28.00
2022-08-07T18:59:00.194Z,28.00
2022-08-07T19:02:18.549Z,27.90
2022-08-07T19:04:54.628Z,27.90
2022-08-07T19:07:34.403Z,27.80
2022-08-07T19:10:14.818Z,27.80
2022-08-07T19:12:57.995Z,27.70
2022-08-07T19:16:05.756Z,27.70
2022-08-07T19:18:44.871Z,27.70
2022-08-07T19:21:51.077Z,27.60
2022-08-07T19:24:30.138Z,27.60
2022-08-07T19:28:29.749Z,27.50
2022-08-07T19:31:01.643Z,27.50
2022-08-07T19:32:59.661Z,27.50
2022-08-07T19:35:33.057Z,27.50
2022-08-07T19:38:16.710Z,27.40
2022-08-07T19:40:49.841Z,27.40
2022-08-07T19:43:49.001Z,27.40
2022-08-07T19:46:18.924Z,27.40
2022-08-07T19:48:53.529Z,27.30
2022-08-07T19:51:52.517Z,27.30
2022-08-07T19:54:55.630Z,27.30
2022-08-07T19:58:03.350Z,27.20
2022-08-07T20:00:28.991Z,27.20
2022-08-07T20:03:05.242Z,27.10
2022-08-07T20:06:00.483Z,27.10
2022-08-07T20:08:33.693Z,27.00
2022-08-07T20:11:10.498Z,27.00
2022-08-07T20:13:44.951Z,26.90
2022-08-07T20:16:34.697Z,26.90
2022-08-07T20:19:09.935Z,26.80
2022-08-07T20:21:48.292Z,26.80
2022-08-07T20:24:22.149Z,26.70
2022-08-07T20:26:54.597Z,26.70
2022-08-07T20:29:47.818Z,26.60
2022-08-07T20:32:23.264Z,26.60
2022-08-07T20:35:00.002Z,26.50
2022-08-07T20:37:34.025Z,26.50
2022-08-07T20:40:32.888Z,26.50
2022-08-07T20:43:19.912Z,26.40
2022-08-07T20:46:26.477Z,26.40
2022-08-07T20:49:00.783Z,26.40
2022-08-07T20:51:40.702Z,26.30
2022-08-07T20:54:30.285Z,26.30
2022-08-07T20:57:04.874Z,26.30
2022-08-07T21:00:06.431Z,26.30
2022-08-07T21:02:53.836Z,26.20
2022-08-07T21:05:50.882Z,26.20
2022-08-07T21:08:36.388Z,26.20
2022-08-07T21:11:50.081Z,26.20
2022-08-07T21:14:32.719Z,26.20
2022-08-07T21:18:02.091Z,26.20
2022-08-07T21:20:04.510Z,26.20
2022-08-07T21:22:45.183Z,26.20
2022-08-07T21:25:31.117Z,26.20
2022-08-07T21:28:18.977Z,26.20
2022-08-07T21:31:15.390Z,26.10
2022-08-07T21:33:51.025Z,26.10
2022-08-07T21:36:32.765Z,26.10
2022-08-07T21:39:47.255Z,26.10
2022-08-07T21:42:32.098Z,26.10
2022-08-07T21:45:42.015Z,26.40
2022-08-07T21:48:02.811Z,26.00
2022-08-07T21:50:39.438Z,26.00
2022-08-07T21:53:15.018Z,25.90
2022-08-07T21:56:16.863Z,25.90
2022-08-07T21:59:06.864Z,25.80
2022-08-07T22:02:11.091Z,25.70
2022-08-07T22:04:37.627Z,25.70
2022-08-07T22:07:13.622Z,25.70
2022-08-07T22:09:54.404Z,25.60
2022-08-07T22:12:32.008Z,25.60
2022-08-07T22:16:41.421Z,25.60
2022-08-07T22:18:02.023Z,25.50
2022-08-07T22:20:43.268Z,25.40
2022-08-07T22:23:23.188Z,25.40
2022-08-07T22:26:05.909Z,25.40
2022-08-07T22:28:48.457Z,25.30
2022-08-07T22:32:05.647Z,25.30
2022-08-07T22:34:41.653Z,25.30
2022-08-07T22:38:03.861Z,25.30
2022-08-07T22:40:26.182Z,25.30
2022-08-07T22:43:04.278Z,25.30
2022-08-07T22:46:21.584Z,25.30
2022-08-07T22:49:10.976Z,25.30
2022-08-07T22:51:54.550Z,25.30
2022-08-07T22:55:17.124Z,25.20
2022-08-07T22:58:05.892Z,25.20
2022-08-07T23:00:44.533Z,25.00
2022-08-07T23:03:59.143Z,25.00
2022-08-07T23:06:51.950Z,25.00
2022-08-07T23:10:00.844Z,24.90
2022-08-07T23:12:37.192Z,24.90
2022-08-07T23:15:12.393Z,24.90
2022-08-07T23:18:23.669Z,24.90
2022-08-07T23:21:16.316Z,24.90
2022-08-07T23:24:18.470Z,24.80
2022-08-07T23:27:02.936Z,24.90
2022-08-07T23:30:37.429Z,24.80
2022-08-07T23:34:36.093Z,24.80
2022-08-07T23:36:17.382Z,24.70
2022-08-07T23:39:04.897Z,24.70
2022-08-07T23:42:04.418Z,24.70
2022-08-07T23:45:15.158Z,24.60
2022-08-07T23:48:15.631Z,25.10
2022-08-07T23:52:55.940Z,24.60
2022-08-07T23:54:06.100Z,24.50
2022-08-07T23:56:54.093Z,24.50
